Latest Weather Observations for Rolleston Airport

IDQ60801

Issued at 9:32 am EST Wednesday 18 January 2017 (issued every 30 minutes, with the page automatically refreshed every 10 minutes)

About weather observations | Map of weather stations | Latest weather observations for QLD | Other Formats
Station Details ID: 035129 Name: ROLLESTON AIRPORT Lat: -24.46 Lon: 148.63 Height: 219.45 m
Data from the previous 72 hours. | See also: Recent months at Rolleston Airport
Date/Time
EST
Temp
°C
App
Temp
°C
Dew
Point
°C
Rel
Hum
%
Delta-T
°C
Wind Press
QNH
hPa
Press
MSL
hPa
Rain since
9am
mm
Dir  Spd
km/h
Gust
km/h
Spd
kts
Gust
kts
18/09:00am 27.7 28.7 17.8 54 6.3 NNW 9 17 5 9 1016.4 1015.0 0.0
18/08:30am 27.1 27.1 17.3 55 6.2 NNW 13 20 7 11 1016.5 1015.1 0.0
18/08:00am 25.7 27.2 18.9 66 4.4 NW 9 13 5 7 1016.7 1015.2 0.0
18/07:30am 25.0 26.6 20.0 74 3.3 NW 11 19 6 10 1016.4 1015.0 0.0
18/07:00am 24.0 27.0 20.9 83 2.0 NW 6 11 3 6 1016.1 1014.7 0.0
18/06:30am 22.6 25.7 20.3 87 1.5 W 4 4 2 2 1015.9 1014.5 0.0
18/06:00am 21.2 24.6 19.3 89 1.2 CALM 0 0 0 0 1015.5 1014.0 0.0
18/05:30am 21.5 25.0 19.6 89 1.2 CALM 0 0 0 0 1015.1 1013.6 0.0
18/05:00am 20.8 24.0 18.9 89 1.2 CALM 0 0 0 0 1014.7 1013.2 0.0
18/04:30am 21.9 25.6 20.0 89 1.2 CALM 0 0 0 0 1014.4 1012.9 0.0
18/04:00am 22.1 25.7 19.8 87 1.5 CALM 0 0 0 0 1014.1 1012.6 0.0
18/03:30am 21.7 24.9 18.9 84 1.8 CALM 0 0 0 0 1014.0 1012.5 0.0
18/03:00am 22.7 26.2 19.5 82 2.1 CALM 0 0 0 0 1014.1 1012.6 0.0
18/02:30am 22.9 26.2 19.1 79 2.4 CALM 0 0 0 0 1014.2 1012.7 0.0
18/02:00am 23.5 26.8 19.2 77 2.8 CALM 0 0 0 0 1014.3 1012.8 0.0
18/01:30am 23.9 27.4 19.6 77 2.8 CALM 0 0 0 0 1014.4 1012.9 0.0
18/01:00am 24.2 27.8 19.7 76 2.9 CALM 0 0 0 0 1014.6 1013.1 0.0
18/12:30am 24.6 28.0 19.4 73 3.4 CALM 0 2 0 1 1014.6 1013.1 0.0
18/12:00am 25.3 26.9 19.2 69 3.9 NNE 9 11 5 6 1014.5 1013.0 0.0
 
Date/Time
EST
Temp
°C
App
Temp
°C
Dew
Point
°C
Rel
Hum
%
Delta-T
°C
Wind Press
QNH
hPa
Press
MSL
hPa
Rain since
9am
mm
Dir  Spd
km/h
Gust
km/h
Spd
kts
Gust
kts
17/11:30pm 25.8 27.3 19.0 66 4.4 NNE 9 13 5 7 1014.5 1013.0 0.0
17/11:00pm 27.0 27.2 18.6 60 5.4 NNE 15 20 8 11 1014.6 1013.1 0.0
17/10:30pm 26.7 28.7 18.8 62 5.1 NNE 6 7 3 4 1014.4 1012.9 0.0
17/10:00pm 27.5 28.7 18.2 57 6.0 ENE 9 11 5 6 1014.4 1012.9 0.0
17/09:30pm 28.1 29.3 18.2 55 6.4 ENE 9 11 5 6 1014.3 1012.8 0.0
17/09:00pm 28.2 29.6 17.7 53 6.7 ENE 7 9 4 5 1014.3 1012.8 0.0
17/08:30pm 28.9 29.7 17.4 49 7.3 ENE 9 9 5 5 1014.2 1012.7 0.0
17/08:00pm 29.3 30.6 17.5 49 7.5 E 7 9 4 5 1014.0 1012.5 0.0
17/07:30pm 30.6 31.4 17.3 45 8.5 E 9 11 5 6 1013.8 1012.3 0.0
17/07:00pm 31.7 32.1 17.2 42 9.3 E 11 15 6 8 1013.5 1012.0 0.0
17/06:30pm 33.1 34.1 16.9 38 10.4 ENE 7 15 4 8 1013.2 1011.7 0.0
17/06:00pm 33.7 34.3 15.2 33 11.6 ENE 6 11 3 6 1013.0 1011.5 0.0
17/05:30pm 33.9 33.4 15.8 33 11.5 ENE 13 20 7 11 1012.8 1011.3 0.0
17/05:00pm 34.2 34.7 16.5 34 11.3 ESE 9 13 5 7 1012.7 1011.2 0.0
17/04:30pm 34.1 34.6 15.5 32 11.7 NNE 7 9 4 5 1012.6 1011.1 0.0
17/04:00pm 34.3 34.3 15.2 31 12.0 NE 9 20 5 11 1012.7 1011.2 0.0
17/03:30pm 33.8 33.4 16.2 35 11.2 NE 13 22 7 12 1013.0 1011.5 0.0
17/03:00pm 33.1 33.0 16.0 35 10.8 NE 11 22 6 12 1013.4 1011.9 0.0
17/02:30pm 32.8 32.8 16.2 37 10.5 E 11 17 6 9 1013.8 1012.3 0.0
17/02:00pm 32.6 33.0 16.4 37 10.3 NNW 9 19 5 10 1014.2 1012.7 0.0
17/01:30pm 32.3 33.4 17.0 40 9.8 NNE 7 15 4 8 1014.5 1013.0 0.0
17/01:00pm 31.9 33.4 18.1 43 9.0 NE 7 17 4 9 1015.0 1013.5 0.0
17/12:30pm 30.9 31.8 17.6 45 8.5 NNE 9 17 5 9 1015.4 1013.9 0.0
17/12:00pm 30.2 32.3 18.0 48 7.9 NNW 4 11 2 6 1015.9 1014.5 0.0
17/11:30am 30.3 32.2 19.0 50 7.4 N 7 13 4 7 1016.3 1014.9 0.0
17/11:00am 30.0 31.6 19.1 52 7.1 NNE 9 17 5 9 1016.5 1015.1 0.0
17/10:30am 28.6 30.7 19.0 56 6.3 N 6 15 3 8 1016.9 1015.4 0.0
17/10:00am 27.9 29.6 19.4 60 5.5 NNE 9 17 5 9 1017.3 1015.8 0.0
17/09:30am 28.0 29.3 19.2 58 5.7 NE 11 15 6 8 1017.4 1015.9 0.0
17/09:00am 26.8 28.1 19.2 63 4.9 NE 11 15 6 8 1017.4 1015.9 0.0
17/08:30am 26.6 27.8 20.0 67 4.3 NE 13 19 7 10 1017.3 1015.8 0.0
17/08:00am 25.8 27.5 20.1 71 3.7 NE 11 15 6 8 1017.3 1015.8 0.0
17/07:30am 25.7 29.4 20.7 74 3.3 ENE 2 7 1 4 1017.4 1015.9 0.0
17/07:00am 23.0 26.6 19.8 82 2.1 CALM 0 0 0 0 1017.1 1015.6 0.0
17/06:30am 21.9 25.4 19.6 87 1.5 CALM 0 4 0 2 1016.9 1015.4 0.0
17/06:00am 20.8 23.9 19.6 93 0.8 S 2 4 1 2 1016.5 1015.1 0.0
17/05:30am 20.4 23.7 19.1 92 0.8 CALM 0 0 0 0 1016.1 1014.7 0.0
17/05:00am 20.6 23.7 18.7 89 1.2 CALM 0 0 0 0 1015.5 1014.0 0.0
17/04:30am 20.9 24.1 18.8 88 1.3 CALM 0 2 0 1 1015.2 1013.7 0.0
17/04:00am 20.7 22.8 19.0 90 1.1 ESE 6 7 3 4 1014.9 1013.4 0.0
17/03:30am 20.8 22.5 18.0 84 1.8 ESE 6 7 3 4 1014.8 1013.3 0.0
17/03:00am 22.8 24.0 19.0 79 2.4 E 11 13 6 7 1014.8 1013.3 0.0
17/02:30am 22.8 24.3 18.8 78 2.5 E 9 11 5 6 1014.9 1013.4 0.0
17/02:00am 23.4 24.4 17.8 71 3.5 E 9 11 5 6 1014.9 1013.4 0.0
17/01:30am 24.3 25.1 17.3 65 4.4 E 9 13 5 7 1014.9 1013.4 0.0
17/01:00am 25.1 26.5 17.8 64 4.6 E 7 9 4 5 1014.9 1013.4 0.0
17/12:30am 25.7 28.0 18.6 65 4.6 NE 4 6 2 3 1014.8 1013.3 0.0
17/12:00am 25.6 27.8 19.3 68 4.1 NE 6 7 3 4 1014.7 1013.2 0.0
 
Date/Time
EST
Temp
°C
App
Temp
°C
Dew
Point
°C
Rel
Hum
%
Delta-T
°C
Wind Press
QNH
hPa
Press
MSL
hPa
Rain since
9am
mm
Dir  Spd
km/h
Gust
km/h
Spd
kts
Gust
kts
16/11:30pm 26.5 28.5 19.1 64 4.8 ENE 7 11 4 6 1014.8 1013.3 0.0
16/11:00pm 26.9 29.7 20.5 68 4.2 NE 6 9 3 5 1014.9 1013.4 0.0
16/10:30pm 27.4 30.5 21.0 68 4.3 NE 6 7 3 4 1014.8 1013.3 0.0
16/10:00pm 27.6 30.4 20.9 67 4.5 NE 7 15 4 8 1014.4 1012.9 0.0
16/09:30pm 27.8 30.9 21.1 67 4.5 ENE 6 9 3 5 1014.1 1012.6 0.0
16/09:00pm 27.9 31.0 21.4 67 4.4 ENE 7 9 4 5 1013.9 1012.4 0.0
16/08:30pm 28.0 31.3 21.5 67 4.4 NE 6 7 3 4 1013.7 1012.2 0.0
16/08:00pm 28.2 31.4 21.7 68 4.4 NE 7 13 4 7 1013.2 1011.7 0.0
16/07:30pm 28.4 31.7 21.9 68 4.4 ENE 7 11 4 6 1013.0 1011.5 0.0
16/07:00pm 28.7 30.8 21.7 66 4.7 E 13 20 7 11 1012.8 1011.3 0.0
16/06:30pm 29.2 30.8 21.4 63 5.3 E 15 20 8 11 1012.3 1010.8 0.0
16/06:00pm 29.6 30.8 22.1 64 5.1 E 19 28 10 15 1011.7 1010.3 0.0
16/05:30pm 29.8 31.3 22.0 63 5.3 E 17 24 9 13 1011.4 1009.9 0.0
16/05:00pm 29.7 30.8 22.4 65 5.0 ENE 20 30 11 16 1011.1 1009.6 0.0
16/04:30pm 30.3 30.7 22.5 63 5.4 E 24 33 13 18 1010.8 1009.3 0.0
16/04:00pm 29.8 29.5 22.5 65 5.0 E 28 35 15 19 1010.9 1009.4 0.0
16/03:30pm 31.0 31.1 21.8 58 6.3 ESE 24 33 13 18 1010.8 1009.3 0.0
16/03:00pm 30.9 31.6 22.2 59 6.0 ESE 22 30 12 16 1010.8 1009.3 0.0
16/02:30pm 30.5 30.7 22.1 61 5.7 ESE 24 32 13 17 1010.8 1009.3 0.0
16/02:00pm 32.4 33.8 22.8 57 6.6 ENE 20 37 11 20 1010.6 1009.1 0.0
16/01:30pm 33.4 34.4 19.5 44 9.2 NE 13 17 7 9 1010.7 1009.2 0.0
16/01:00pm 32.3 34.9 21.2 52 7.5 ENE 9 17 5 9 1011.0 1009.5 0.0
16/12:30pm 32.4 35.3 21.0 51 7.7 E 7 15 4 8 1011.5 1010.1 0.0
16/12:00pm 30.5 33.6 21.0 57 6.4 ENE 6 9 3 5 1012.0 1010.5 0.0
16/11:30am 30.0 33.1 21.4 60 5.8 E 7 17 4 9 1012.2 1010.7 0.0
16/11:00am 30.3 32.5 21.1 58 6.2 NE 11 19 6 10 1012.4 1010.9 0.0
16/10:30am 30.0 33.2 22.4 63 5.2 ESE 9 19 5 10 1012.7 1011.2 0.0
16/10:00am 29.3 31.8 21.8 64 5.1 ENE 11 26 6 14 1012.6 1011.1 0.0
16/09:30am 29.1 32.3 22.3 66 4.6 E 9 17 5 9 1012.7 1011.2 0.0
16/09:00am 28.3 30.4 22.5 71 4.0 E 15 22 8 12 1012.8 1011.3 19.0
16/08:30am 27.4 29.8 23.0 77 3.0 ENE 15 20 8 11 1012.8 1011.3 19.0
16/08:00am 26.9 29.9 23.4 81 2.4 E 13 20 7 11 1012.9 1011.4 19.0
16/07:30am 25.5 29.7 23.4 88 1.4 ESE 7 11 4 6 1012.6 1011.1 19.0
16/07:00am 24.6 28.2 22.1 86 1.7 SE 6 9 3 5 1012.3 1010.8 19.0
16/06:30am 23.7 27.6 22.5 93 0.8 S 6 9 3 5 1012.1 1010.6 19.0
16/06:00am 23.3 27.6 22.6 96 0.5 S 4 6 2 3 1011.7 1010.3 19.0
16/05:30am 22.9 27.6 22.6 98 0.2 SSW 2 4 1 2 1011.4 1009.9 19.0
16/05:00am 22.6 27.0 22.1 97 0.3 SW 2 4 1 2 1010.9 1009.4 19.0
16/04:30am 22.4 26.7 21.9 97 0.3 S 2 6 1 3 1010.5 1009.0 19.0
16/04:00am 22.3 26.2 21.8 97 0.3 SSE 4 6 2 3 1010.1 1008.6 19.0
16/03:30am 22.3 26.2 21.8 97 0.3 SSE 4 6 2 3 1009.8 1008.3 19.0
16/03:00am 22.6 26.6 21.4 93 0.8 SSW 2 4 1 2 1009.8 1008.3 18.8
16/02:30am 22.7 27.3 21.7 94 0.7 CALM 0 0 0 0 1010.0 1008.5 18.8
16/02:00am 22.5 26.3 21.7 95 0.5 W 4 6 2 3 1010.2 1008.7 18.8
16/01:30am 22.5 26.8 22.0 97 0.3 SSE 2 6 1 3 1010.7 1009.2 18.8
16/01:00am 22.2 26.2 21.4 95 0.5 SSE 2 6 1 3 1010.2 1008.7 18.6
16/12:30am 22.1 25.8 21.4 96 0.5 NNW 4 7 2 4 1009.8 1008.3 18.6
16/12:00am 22.2 25.5 21.4 95 0.5 NNW 6 7 3 4 1010.6 1009.1 18.6
 
Date/Time
EST
Temp
°C
App
Temp
°C
Dew
Point
°C
Rel
Hum
%
Delta-T
°C
Wind Press
QNH
hPa
Press
MSL
hPa
Rain since
9am
mm
Dir  Spd
km/h
Gust
km/h
Spd
kts
Gust
kts
15/11:30pm 22.2 25.2 21.2 94 0.7 WNW 7 11 4 6 1011.2 1009.7 18.6
15/11:00pm 22.6 25.6 20.9 90 1.1 E 6 11 3 6 1011.6 1010.2 18.4
15/10:30pm 22.6 22.9 20.7 89 1.2 ESE 20 30 11 16 1012.2 1010.7 17.8
15/10:00pm 23.2 23.9 21.6 91 1.1 ESE 20 32 11 17 1012.7 1011.2 16.4
15/09:30pm 25.2 27.2 22.3 84 2.0 ESE 15 26 8 14 1012.8 1011.3 10.4
15/09:00pm 25.2 27.6 22.3 84 2.0 E 13 19 7 10 1011.7 1010.3 10.4
15/08:30pm 25.8 29.3 23.5 87 1.6 SE 11 19 6 10 1010.8 1009.3 10.4
15/08:00pm 25.8 29.2 23.3 86 1.7 ESE 11 15 6 8 1010.2 1008.7 10.4
15/07:30pm 25.7 30.1 22.8 84 2.0 S 4 6 2 3 1008.8 1007.3 10.4
15/07:00pm 25.9 30.0 23.0 84 2.0 SSW 6 9 3 5 1008.5 1007.0 10.4
15/06:30pm 26.1 30.7 23.2 84 2.0 SW 4 6 2 3 1007.8 1006.3 10.4
15/06:00pm 26.2 29.7 22.9 82 2.3 SSE 9 13 5 7 1008.0 1006.5 10.4
15/05:30pm 25.7 29.3 23.0 85 1.8 SE 9 11 5 6 1007.5 1006.0 10.4
15/05:00pm 25.3 28.7 23.4 89 1.3 S 11 15 6 8 1007.3 1005.7 10.4
15/04:30pm 24.5 27.7 23.1 92 1.0 SSE 11 17 6 9 1007.6 1006.1 10.4
15/04:00pm 24.4 27.9 22.8 91 1.1 SSW 9 15 5 8 1006.9 1005.4 10.2
15/03:30pm 24.6 28.2 22.3 87 1.6 SSW 7 9 4 5 1007.4 1005.8 10.0
15/03:00pm 25.1 29.6 21.6 81 2.3 CALM 0 4 0 2 1007.4 1005.8 9.6
15/02:30pm 25.4 30.2 23.5 89 1.3 E 4 9 2 5 1008.1 1006.6 9.6
15/02:00pm 25.2 28.1 22.5 85 1.8 E 11 15 6 8 1008.5 1007.0 9.4
15/01:30pm 25.6 29.4 22.7 84 2.0 ENE 7 13 4 7 1009.1 1007.6 9.4
15/01:00pm 25.5 27.1 22.8 85 1.8 ESE 19 26 10 14 1008.8 1007.3 9.2
15/12:30pm 24.9 23.5 22.0 84 1.9 ENE 32 43 17 23 1008.6 1007.1 2.6
15/12:24pm 27.0 25.7 20.6 68 4.2 E 28 43 15 23 1008.7 1007.2 0.0
15/12:00pm 32.5 36.0 22.9 57 6.7 WSW 9 17 5 9 1008.4 1006.9 0.0
15/11:30am 33.4 37.6 23.1 54 7.2 WSW 6 11 3 6 1008.5 1007.0 0.0
15/11:00am 32.5 36.7 23.2 58 6.5 S 6 13 3 7 1008.8 1007.3 0.0
15/10:30am 31.0 35.2 23.1 63 5.5 S 6 11 3 6 1009.0 1007.5 0.0
15/10:00am 29.9 33.5 22.3 63 5.2 S 7 13 4 7 1009.0 1007.5 0.0

Other Formats:

Comma delimited format used in spreadsheet applications
http://www.bom.gov.au/fwo/IDQ60801/IDQ60801.94396.axf

JavaScript Object Notation format (JSON) in row-major order
http://www.bom.gov.au/fwo/IDQ60801/IDQ60801.94396.json